William R Fairchild International Airport
KCLM : rendu visible

Aérodrome :











RETROUVEZ-NOUS SUR...

 
LOGIN :

S'inscrire | Disclaimer

   EN    FR    IT 

 









Légende :    VFR   VFR Marginal   IFR   IFR Intensif   IFR Très Intensif
Visi : 
Plafond : 
>= 8 km
>= 3000ft
5 à 8 km
1000 à 3000 ft
1500m à 5 km
500 à 1000 ft
800 à 1500m
200 à 500 ft
< 800m
< 200 ft
Symboles :   Orages  Brouillard  Fortes neiges  Fortes précipitations  Vent > 20 kt






- Altitude de l'aérodrome : 291 ft
- Code IATA : CLM


KCLM - William R Fairchild International

DERNIER METAR :
  • 290553Z AUTO 00000KT 9SM -RA OVC004 07/07 A2981 RMK AO2 SLP095 P0001 60014 T00720072 10100 20072 50000

METARs EXPIRÉS :
  • 290453Z AUTO 00000KT 9SM -RA OVC003 08/07 A2981 RMK AO2 RAB0354 SLP095 P0002 T00780072
  • 290414Z AUTO 00000KT 6SM -RA BR OVC002 08/07 A2981 RMK AO2 RAB0354 P0002 T00780072
  • 290353Z AUTO 00000KT 9SM OVC006 08/07 A2982 RMK AO2 RAE40 CIG 004V007 SLP098 P0002 T00780072
  • 290328Z AUTO 00000KT 6SM -RA BR BKN006 OVC046 08/08 A2981 RMK AO2 P0002 T00780078

TAF KCLM
Valide du 29 à 06h jusqu'au 30 à 06h UTC


290520Z 2906/3006 VRB03KT 5SM -RA OVC003
FM291700 28008KT P6SM -RA BKN025



MET'MAP, la Météo Aéronautique d'un coup d'oeil ! - Copyright ORBIFLY Décembre 2007 - Disclaimer

ORBIFLY MET'MAP TEAM :

Programmation & Développement : Alexandra Zaïnal
Sur une idée originale de : Baudouin d'Aumeries
Assistance à la programmation : Marc-Olivier Méhu
Soutien technique & logistique : Manuel Goepfert

Contact : metmap@orbifly.com




SOURCES & CREDITS :

   NOAA       Earth
Advisory